Wabedo, Minnesota
Current Conditions -  °F | °C
As of 12:56 AM on Thursday 23 Oct 2014 (Local Time) from KXVG Reporting Station
Moderate Rain Moderate Rain  
Wind Chill: 48°   Ceiling: 2000
Heat Index: 48°   Visibility: 10mi
Dew Point: 48°   Wind: 3mph
Humidity: 100%   Direction: 170°S
Pressure: 29.94"   Gusts: NA
Location:  47.0632°N, 94.1534°W
Report Text: KXVG 230556Z AUTO 17003KT 10SM RA OVC020 09/09 A2994 RMK AO2
Loading
Personal Weather Stations






























Interactive Weather Map
Tropical Storm Tracking
New forecast layout! Learn more

10-Day Weather Forecast

Advertisements
Track Severe Weather on mobile